sensor_id;sensor_type;location;lat;lon;timestamp;P1;durP1;ratioP1;P2;durP2;ratioP2
53710;SDS011;39605;52.704;6.752;2023-07-29T00:00:46;12.80;;;11.88;;
53710;SDS011;39605;52.704;6.752;2023-07-29T00:03:12;13.05;;;12.05;;
53710;SDS011;39605;52.704;6.752;2023-07-29T00:05:38;12.73;;;11.80;;
53710;SDS011;39605;52.704;6.752;2023-07-29T00:08:05;13.30;;;12.00;;
53710;SDS011;39605;52.704;6.752;2023-07-29T00:10:31;13.70;;;12.48;;
53710;SDS011;39605;52.704;6.752;2023-07-29T00:12:58;12.10;;;11.07;;
53710;SDS011;39605;52.704;6.752;2023-07-29T00:15:24;12.55;;;11.40;;
53710;SDS011;39605;52.704;6.752;2023-07-29T00:17:50;12.30;;;11.20;;
53710;SDS011;39605;52.704;6.752;2023-07-29T00:20:16;11.32;;;10.23;;
53710;SDS011;39605;52.704;6.752;2023-07-29T00:22:42;10.82;;;9.95;;
53710;SDS011;39605;52.704;6.752;2023-07-29T00:25:08;10.48;;;9.57;;
53710;SDS011;39605;52.704;6.752;2023-07-29T00:27:34;11.23;;;10.35;;
53710;SDS011;39605;52.704;6.752;2023-07-29T00:30:01;9.05;;;8.23;;
53710;SDS011;39605;52.704;6.752;2023-07-29T00:32:28;8.55;;;7.95;;
53710;SDS011;39605;52.704;6.752;2023-07-29T00:34:56;9.00;;;8.18;;
53710;SDS011;39605;52.704;6.752;2023-07-29T00:37:22;7.93;;;7.32;;
53710;SDS011;39605;52.704;6.752;2023-07-29T00:39:48;8.85;;;8.20;;
53710;SDS011;39605;52.704;6.752;2023-07-29T00:42:14;8.52;;;7.82;;
53710;SDS011;39605;52.704;6.752;2023-07-29T00:44:40;8.10;;;7.28;;
53710;SDS011;39605;52.704;6.752;2023-07-29T00:47:06;7.50;;;6.90;;
53710;SDS011;39605;52.704;6.752;2023-07-29T00:49:32;7.97;;;7.38;;
53710;SDS011;39605;52.704;6.752;2023-07-29T00:51:59;7.70;;;7.00;;
53710;SDS011;39605;52.704;6.752;2023-07-29T00:54:25;8.02;;;7.30;;
53710;SDS011;39605;52.704;6.752;2023-07-29T00:56:51;7.45;;;6.95;;
53710;SDS011;39605;52.704;6.752;2023-07-29T00:59:17;7.65;;;6.85;;
53710;SDS011;39605;52.704;6.752;2023-07-29T01:01:43;7.82;;;7.30;;
53710;SDS011;39605;52.704;6.752;2023-07-29T01:04:09;6.85;;;6.45;;
53710;SDS011;39605;52.704;6.752;2023-07-29T01:09:20;6.55;;;6.05;;
53710;SDS011;39605;52.704;6.752;2023-07-29T01:16:50;7.25;;;6.70;;
53710;SDS011;39605;52.704;6.752;2023-07-29T01:21:54;7.15;;;6.63;;
53710;SDS011;39605;52.704;6.752;2023-07-29T01:24:21;7.53;;;7.00;;
53710;SDS011;39605;52.704;6.752;2023-07-29T01:26:47;7.03;;;6.53;;
53710;SDS011;39605;52.704;6.752;2023-07-29T01:29:13;6.85;;;6.45;;
53710;SDS011;39605;52.704;6.752;2023-07-29T01:31:41;8.00;;;7.50;;
53710;SDS011;39605;52.704;6.752;2023-07-29T01:34:10;9.07;;;8.35;;
53710;SDS011;39605;52.704;6.752;2023-07-29T01:36:37;8.07;;;7.47;;
53710;SDS011;39605;52.704;6.752;2023-07-29T01:39:05;8.73;;;8.23;;
53710;SDS011;39605;52.704;6.752;2023-07-29T01:41:33;8.32;;;7.72;;
53710;SDS011;39605;52.704;6.752;2023-07-29T01:44:00;8.35;;;7.78;;
53710;SDS011;39605;52.704;6.752;2023-07-29T01:46:27;8.32;;;7.82;;
53710;SDS011;39605;52.704;6.752;2023-07-29T01:48:53;8.18;;;7.53;;
53710;SDS011;39605;52.704;6.752;2023-07-29T01:51:19;9.63;;;8.82;;
53710;SDS011;39605;52.704;6.752;2023-07-29T01:53:46;9.63;;;8.65;;
53710;SDS011;39605;52.704;6.752;2023-07-29T01:56:12;9.13;;;8.50;;
53710;SDS011;39605;52.704;6.752;2023-07-29T01:58:38;10.18;;;9.48;;
53710;SDS011;39605;52.704;6.752;2023-07-29T02:01:04;9.32;;;8.68;;
53710;SDS011;39605;52.704;6.752;2023-07-29T02:03:30;9.18;;;8.48;;
53710;SDS011;39605;52.704;6.752;2023-07-29T02:05:56;10.20;;;9.20;;
53710;SDS011;39605;52.704;6.752;2023-07-29T02:08:23;7.80;;;7.13;;
53710;SDS011;39605;52.704;6.752;2023-07-29T02:10:49;8.80;;;8.20;;
53710;SDS011;39605;52.704;6.752;2023-07-29T02:13:15;8.18;;;7.68;;
53710;SDS011;39605;52.704;6.752;2023-07-29T02:15:41;7.68;;;7.07;;
53710;SDS011;39605;52.704;6.752;2023-07-29T02:18:07;8.05;;;7.35;;
53710;SDS011;39605;52.704;6.752;2023-07-29T02:20:33;6.78;;;6.18;;
53710;SDS011;39605;52.704;6.752;2023-07-29T02:22:59;7.65;;;6.53;;
53710;SDS011;39605;52.704;6.752;2023-07-29T02:25:25;6.47;;;5.95;;
53710;SDS011;39605;52.704;6.752;2023-07-29T02:27:51;6.07;;;5.68;;
53710;SDS011;39605;52.704;6.752;2023-07-29T02:30:17;6.30;;;5.80;;
53710;SDS011;39605;52.704;6.752;2023-07-29T02:32:43;6.28;;;5.68;;
53710;SDS011;39605;52.704;6.752;2023-07-29T02:35:11;6.18;;;5.68;;
53710;SDS011;39605;52.704;6.752;2023-07-29T02:37:37;4.95;;;4.65;;
53710;SDS011;39605;52.704;6.752;2023-07-29T02:40:04;4.93;;;4.57;;
53710;SDS011;39605;52.704;6.752;2023-07-29T02:42:31;4.60;;;4.30;;
53710;SDS011;39605;52.704;6.752;2023-07-29T02:44:57;4.28;;;3.97;;
53710;SDS011;39605;52.704;6.752;2023-07-29T02:47:23;4.55;;;3.97;;
53710;SDS011;39605;52.704;6.752;2023-07-29T02:49:50;31.30;;;3.22;;
53710;SDS011;39605;52.704;6.752;2023-07-29T02:52:16;4.22;;;3.92;;
53710;SDS011;39605;52.704;6.752;2023-07-29T02:54:42;3.80;;;3.55;;
53710;SDS011;39605;52.704;6.752;2023-07-29T02:57:08;72.70;;;8.07;;
53710;SDS011;39605;52.704;6.752;2023-07-29T02:59:34;4.18;;;3.97;;
53710;SDS011;39605;52.704;6.752;2023-07-29T03:02:00;5.35;;;4.90;;
53710;SDS011;39605;52.704;6.752;2023-07-29T03:04:26;4.20;;;3.90;;
53710;SDS011;39605;52.704;6.752;2023-07-29T03:06:52;4.28;;;3.97;;
53710;SDS011;39605;52.704;6.752;2023-07-29T03:09:18;4.53;;;4.13;;
53710;SDS011;39605;52.704;6.752;2023-07-29T03:11:44;4.50;;;4.10;;
53710;SDS011;39605;52.704;6.752;2023-07-29T03:14:11;4.10;;;3.88;;
53710;SDS011;39605;52.704;6.752;2023-07-29T03:16:37;3.70;;;3.50;;
53710;SDS011;39605;52.704;6.752;2023-07-29T03:19:03;3.92;;;3.63;;
53710;SDS011;39605;52.704;6.752;2023-07-29T03:21:31;4.60;;;4.15;;
53710;SDS011;39605;52.704;6.752;2023-07-29T03:23:57;6.05;;;3.80;;
53710;SDS011;39605;52.704;6.752;2023-07-29T03:26:23;3.60;;;3.40;;
53710;SDS011;39605;52.704;6.752;2023-07-29T03:28:50;3.53;;;3.28;;
53710;SDS011;39605;52.704;6.752;2023-07-29T03:31:16;3.38;;;3.17;;
53710;SDS011;39605;52.704;6.752;2023-07-29T03:33:42;3.20;;;3.00;;
53710;SDS011;39605;52.704;6.752;2023-07-29T03:36:08;3.92;;;2.53;;
53710;SDS011;39605;52.704;6.752;2023-07-29T03:38:34;2.95;;;2.50;;
53710;SDS011;39605;52.704;6.752;2023-07-29T03:41:04;4.82;;;3.15;;
53710;SDS011;39605;52.704;6.752;2023-07-29T03:43:31;2.65;;;2.45;;
53710;SDS011;39605;52.704;6.752;2023-07-29T03:45:57;4.05;;;2.03;;
53710;SDS011;39605;52.704;6.752;2023-07-29T03:48:23;2.00;;;1.65;;
53710;SDS011;39605;52.704;6.752;2023-07-29T03:50:49;2.75;;;1.52;;
53710;SDS011;39605;52.704;6.752;2023-07-29T03:53:15;1.45;;;1.35;;
53710;SDS011;39605;52.704;6.752;2023-07-29T03:55:42;2.50;;;1.58;;
53710;SDS011;39605;52.704;6.752;2023-07-29T03:58:08;1.55;;;1.25;;
53710;SDS011;39605;52.704;6.752;2023-07-29T04:00:34;1.90;;;1.40;;
53710;SDS011;39605;52.704;6.752;2023-07-29T04:03:00;1.42;;;1.30;;
53710;SDS011;39605;52.704;6.752;2023-07-29T04:05:26;1.13;;;1.02;;
53710;SDS011;39605;52.704;6.752;2023-07-29T04:07:53;2.05;;;0.95;;
53710;SDS011;39605;52.704;6.752;2023-07-29T04:10:19;1.08;;;0.98;;
53710;SDS011;39605;52.704;6.752;2023-07-29T04:12:45;1.58;;;1.00;;
53710;SDS011;39605;52.704;6.752;2023-07-29T04:15:11;1.63;;;0.88;;
53710;SDS011;39605;52.704;6.752;2023-07-29T04:17:37;1.50;;;1.10;;
53710;SDS011;39605;52.704;6.752;2023-07-29T04:20:03;1.30;;;1.20;;
53710;SDS011;39605;52.704;6.752;2023-07-29T04:22:30;1.67;;;1.20;;
53710;SDS011;39605;52.704;6.752;2023-07-29T04:24:56;1.00;;;0.90;;
53710;SDS011;39605;52.704;6.752;2023-07-29T04:27:22;1.30;;;0.70;;
53710;SDS011;39605;52.704;6.752;2023-07-29T04:29:48;2.30;;;0.88;;
53710;SDS011;39605;52.704;6.752;2023-07-29T04:32:14;0.90;;;0.80;;
53710;SDS011;39605;52.704;6.752;2023-07-29T04:34:40;2.33;;;0.75;;
53710;SDS011;39605;52.704;6.752;2023-07-29T04:37:06;1.10;;;0.77;;
53710;SDS011;39605;52.704;6.752;2023-07-29T04:39:32;1.00;;;0.90;;
53710;SDS011;39605;52.704;6.752;2023-07-29T04:41:58;1.70;;;1.00;;
53710;SDS011;39605;52.704;6.752;2023-07-29T04:44:25;2.25;;;1.00;;
53710;SDS011;39605;52.704;6.752;2023-07-29T04:46:52;3.10;;;0.88;;
53710;SDS011;39605;52.704;6.752;2023-07-29T04:49:18;1.63;;;0.80;;
53710;SDS011;39605;52.704;6.752;2023-07-29T04:51:44;1.70;;;1.00;;
53710;SDS011;39605;52.704;6.752;2023-07-29T04:54:10;2.05;;;0.90;;
53710;SDS011;39605;52.704;6.752;2023-07-29T04:56:37;1.13;;;0.90;;
53710;SDS011;39605;52.704;6.752;2023-07-29T04:59:03;2.67;;;0.95;;
53710;SDS011;39605;52.704;6.752;2023-07-29T05:01:29;1.90;;;0.93;;
53710;SDS011;39605;52.704;6.752;2023-07-29T05:03:55;3.33;;;0.98;;
53710;SDS011;39605;52.704;6.752;2023-07-29T05:06:21;2.45;;;1.13;;
53710;SDS011;39605;52.704;6.752;2023-07-29T05:08:47;2.60;;;1.42;;
53710;SDS011;39605;52.704;6.752;2023-07-29T05:11:13;2.03;;;1.30;;
53710;SDS011;39605;52.704;6.752;2023-07-29T05:13:39;2.50;;;1.00;;
53710;SDS011;39605;52.704;6.752;2023-07-29T05:16:07;3.22;;;1.08;;
53710;SDS011;39605;52.704;6.752;2023-07-29T05:18:33;1.95;;;1.25;;
53710;SDS011;39605;52.704;6.752;2023-07-29T05:20:59;2.88;;;1.23;;
53710;SDS011;39605;52.704;6.752;2023-07-29T05:23:25;3.70;;;1.42;;
53710;SDS011;39605;52.704;6.752;2023-07-29T05:25:51;3.17;;;1.88;;
53710;SDS011;39605;52.704;6.752;2023-07-29T05:28:17;1.80;;;1.70;;
53710;SDS011;39605;52.704;6.752;2023-07-29T05:30:44;4.93;;;1.50;;
53710;SDS011;39605;52.704;6.752;2023-07-29T05:33:10;2.08;;;1.60;;
53710;SDS011;39605;52.704;6.752;2023-07-29T05:35:36;4.13;;;1.92;;
53710;SDS011;39605;52.704;6.752;2023-07-29T05:38:02;4.18;;;2.40;;
53710;SDS011;39605;52.704;6.752;2023-07-29T05:40:31;2.78;;;2.53;;
53710;SDS011;39605;52.704;6.752;2023-07-29T05:42:57;4.13;;;2.80;;
53710;SDS011;39605;52.704;6.752;2023-07-29T05:45:23;4.95;;;2.30;;
53710;SDS011;39605;52.704;6.752;2023-07-29T05:47:49;2.95;;;2.47;;
53710;SDS011;39605;52.704;6.752;2023-07-29T05:50:15;4.60;;;2.83;;
53710;SDS011;39605;52.704;6.752;2023-07-29T05:52:41;4.55;;;2.95;;
53710;SDS011;39605;52.704;6.752;2023-07-29T05:55:07;6.65;;;3.22;;
53710;SDS011;39605;52.704;6.752;2023-07-29T05:57:33;4.35;;;3.38;;
53710;SDS011;39605;52.704;6.752;2023-07-29T05:59:59;4.53;;;3.55;;
53710;SDS011;39605;52.704;6.752;2023-07-29T06:02:26;4.38;;;3.17;;
53710;SDS011;39605;52.704;6.752;2023-07-29T06:04:52;7.03;;;3.78;;
53710;SDS011;39605;52.704;6.752;2023-07-29T06:07:18;4.75;;;4.07;;
53710;SDS011;39605;52.704;6.752;2023-07-29T06:09:44;4.15;;;3.78;;
53710;SDS011;39605;52.704;6.752;2023-07-29T06:12:10;5.28;;;3.85;;
53710;SDS011;39605;52.704;6.752;2023-07-29T06:14:36;6.35;;;4.15;;
53710;SDS011;39605;52.704;6.752;2023-07-29T06:17:02;6.45;;;4.47;;
53710;SDS011;39605;52.704;6.752;2023-07-29T06:19:28;5.10;;;4.22;;
53710;SDS011;39605;52.704;6.752;2023-07-29T06:21:57;5.65;;;4.13;;
53710;SDS011;39605;52.704;6.752;2023-07-29T06:24:23;4.60;;;4.10;;
53710;SDS011;39605;52.704;6.752;2023-07-29T06:26:49;5.18;;;4.35;;
53710;SDS011;39605;52.704;6.752;2023-07-29T06:29:15;4.93;;;4.57;;
53710;SDS011;39605;52.704;6.752;2023-07-29T06:31:41;4.55;;;4.15;;
53710;SDS011;39605;52.704;6.752;2023-07-29T06:34:08;6.10;;;4.50;;
53710;SDS011;39605;52.704;6.752;2023-07-29T06:36:34;5.50;;;4.20;;
53710;SDS011;39605;52.704;6.752;2023-07-29T06:39:00;4.85;;;3.75;;
53710;SDS011;39605;52.704;6.752;2023-07-29T06:41:26;4.75;;;3.80;;
53710;SDS011;39605;52.704;6.752;2023-07-29T06:43:52;4.20;;;3.80;;
53710;SDS011;39605;52.704;6.752;2023-07-29T06:46:18;5.68;;;3.67;;
53710;SDS011;39605;52.704;6.752;2023-07-29T06:48:44;3.83;;;3.47;;
53710;SDS011;39605;52.704;6.752;2023-07-29T06:51:10;4.93;;;3.25;;
53710;SDS011;39605;52.704;6.752;2023-07-29T06:53:37;4.07;;;2.90;;
53710;SDS011;39605;52.704;6.752;2023-07-29T06:56:03;5.68;;;3.78;;
53710;SDS011;39605;52.704;6.752;2023-07-29T06:58:29;5.95;;;3.67;;
53710;SDS011;39605;52.704;6.752;2023-07-29T07:00:55;4.53;;;3.33;;
53710;SDS011;39605;52.704;6.752;2023-07-29T07:03:22;4.55;;;3.58;;
53710;SDS011;39605;52.704;6.752;2023-07-29T07:05:48;4.35;;;3.72;;
53710;SDS011;39605;52.704;6.752;2023-07-29T07:08:14;5.22;;;3.72;;
53710;SDS011;39605;52.704;6.752;2023-07-29T07:10:40;4.10;;;3.78;;
53710;SDS011;39605;52.704;6.752;2023-07-29T07:13:06;5.40;;;3.55;;
53710;SDS011;39605;52.704;6.752;2023-07-29T07:15:32;6.05;;;4.20;;
53710;SDS011;39605;52.704;6.752;2023-07-29T07:17:58;4.00;;;3.60;;
53710;SDS011;39605;52.704;6.752;2023-07-29T07:20:24;6.97;;;4.30;;
53710;SDS011;39605;52.704;6.752;2023-07-29T07:22:50;4.38;;;3.70;;
53710;SDS011;39605;52.704;6.752;2023-07-29T07:25:16;4.13;;;3.75;;
53710;SDS011;39605;52.704;6.752;2023-07-29T07:27:42;4.47;;;3.15;;
53710;SDS011;39605;52.704;6.752;2023-07-29T07:30:09;4.22;;;3.83;;
53710;SDS011;39605;52.704;6.752;2023-07-29T07:32:35;5.80;;;3.28;;
53710;SDS011;39605;52.704;6.752;2023-07-29T07:35:01;5.15;;;3.45;;
53710;SDS011;39605;52.704;6.752;2023-07-29T07:37:27;5.40;;;3.50;;
53710;SDS011;39605;52.704;6.752;2023-07-29T07:39:53;3.88;;;2.85;;
53710;SDS011;39605;52.704;6.752;2023-07-29T07:42:19;6.75;;;3.58;;
53710;SDS011;39605;52.704;6.752;2023-07-29T07:44:45;4.00;;;2.83;;
53710;SDS011;39605;52.704;6.752;2023-07-29T07:47:12;3.50;;;3.20;;
53710;SDS011;39605;52.704;6.752;2023-07-29T07:49:38;3.60;;;2.45;;
53710;SDS011;39605;52.704;6.752;2023-07-29T07:52:04;5.43;;;2.75;;
53710;SDS011;39605;52.704;6.752;2023-07-29T07:54:30;3.65;;;2.20;;
53710;SDS011;39605;52.704;6.752;2023-07-29T07:56:56;2.58;;;2.38;;
53710;SDS011;39605;52.704;6.752;2023-07-29T07:59:22;4.00;;;3.05;;
53710;SDS011;39605;52.704;6.752;2023-07-29T08:01:48;4.63;;;2.50;;
53710;SDS011;39605;52.704;6.752;2023-07-29T08:04:15;2.92;;;2.17;;
53710;SDS011;39605;52.704;6.752;2023-07-29T08:06:41;3.45;;;2.42;;
53710;SDS011;39605;52.704;6.752;2023-07-29T08:09:07;2.75;;;2.05;;
53710;SDS011;39605;52.704;6.752;2023-07-29T08:11:33;1.98;;;1.55;;
53710;SDS011;39605;52.704;6.752;2023-07-29T08:13:59;2.35;;;1.20;;
53710;SDS011;39605;52.704;6.752;2023-07-29T08:16:25;2.80;;;1.38;;
53710;SDS011;39605;52.704;6.752;2023-07-29T08:18:51;3.05;;;1.20;;
53710;SDS011;39605;52.704;6.752;2023-07-29T08:21:17;2.63;;;1.20;;
53710;SDS011;39605;52.704;6.752;2023-07-29T08:23:43;2.72;;;1.83;;
53710;SDS011;39605;52.704;6.752;2023-07-29T08:26:09;1.80;;;1.30;;
53710;SDS011;39605;52.704;6.752;2023-07-29T08:28:39;3.67;;;1.38;;
53710;SDS011;39605;52.704;6.752;2023-07-29T08:31:05;3.88;;;1.10;;
53710;SDS011;39605;52.704;6.752;2023-07-29T08:33:32;2.28;;;1.08;;
53710;SDS011;39605;52.704;6.752;2023-07-29T08:35:59;1.85;;;1.02;;
53710;SDS011;39605;52.704;6.752;2023-07-29T08:38:25;3.17;;;1.13;;
53710;SDS011;39605;52.704;6.752;2023-07-29T08:43:37;4.93;;;1.42;;
53710;SDS011;39605;52.704;6.752;2023-07-29T08:46:04;1.52;;;0.95;;
53710;SDS011;39605;52.704;6.752;2023-07-29T08:48:41;2.08;;;1.00;;
53710;SDS011;39605;52.704;6.752;2023-07-29T08:51:07;3.72;;;1.13;;
53710;SDS011;39605;52.704;6.752;2023-07-29T08:53:34;3.05;;;0.80;;
53710;SDS011;39605;52.704;6.752;2023-07-29T08:56:00;4.28;;;0.80;;
53710;SDS011;39605;52.704;6.752;2023-07-29T08:58:26;2.35;;;0.70;;
53710;SDS011;39605;52.704;6.752;2023-07-29T09:00:53;3.60;;;0.68;;
53710;SDS011;39605;52.704;6.752;2023-07-29T09:03:19;1.95;;;1.00;;
53710;SDS011;39605;52.704;6.752;2023-07-29T09:05:46;2.38;;;0.80;;
53710;SDS011;39605;52.704;6.752;2023-07-29T09:08:13;1.55;;;0.60;;
53710;SDS011;39605;52.704;6.752;2023-07-29T09:10:39;2.63;;;0.80;;
53710;SDS011;39605;52.704;6.752;2023-07-29T09:13:05;4.45;;;0.73;;
53710;SDS011;39605;52.704;6.752;2023-07-29T09:15:35;1.67;;;0.73;;
53710;SDS011;39605;52.704;6.752;2023-07-29T09:18:08;3.00;;;0.50;;
53710;SDS011;39605;52.704;6.752;2023-07-29T09:20:35;2.38;;;0.60;;
53710;SDS011;39605;52.704;6.752;2023-07-29T09:23:01;3.22;;;0.55;;
53710;SDS011;39605;52.704;6.752;2023-07-29T09:25:28;1.38;;;0.40;;
53710;SDS011;39605;52.704;6.752;2023-07-29T09:27:58;1.05;;;0.40;;
53710;SDS011;39605;52.704;6.752;2023-07-29T09:30:24;1.77;;;0.40;;
53710;SDS011;39605;52.704;6.752;2023-07-29T09:32:57;1.63;;;0.50;;
53710;SDS011;39605;52.704;6.752;2023-07-29T09:35:24;1.05;;;0.50;;
53710;SDS011;39605;52.704;6.752;2023-07-29T09:37:51;0.90;;;0.40;;
53710;SDS011;39605;52.704;6.752;2023-07-29T09:40:17;1.42;;;0.60;;
53710;SDS011;39605;52.704;6.752;2023-07-29T09:42:47;0.82;;;0.40;;
53710;SDS011;39605;52.704;6.752;2023-07-29T09:45:19;0.80;;;0.30;;
53710;SDS011;39605;52.704;6.752;2023-07-29T09:47:46;1.63;;;0.30;;
53710;SDS011;39605;52.704;6.752;2023-07-29T09:50:12;5.13;;;0.95;;
53710;SDS011;39605;52.704;6.752;2023-07-29T09:52:38;1.63;;;0.52;;
53710;SDS011;39605;52.704;6.752;2023-07-29T09:55:04;1.20;;;0.30;;
53710;SDS011;39605;52.704;6.752;2023-07-29T09:57:34;0.98;;;0.50;;
53710;SDS011;39605;52.704;6.752;2023-07-29T10:00:01;2.92;;;0.50;;
53710;SDS011;39605;52.704;6.752;2023-07-29T10:02:30;1.42;;;0.50;;
53710;SDS011;39605;52.704;6.752;2023-07-29T10:04:56;2.28;;;0.47;;
53710;SDS011;39605;52.704;6.752;2023-07-29T10:07:23;1.20;;;0.30;;
53710;SDS011;39605;52.704;6.752;2023-07-29T10:09:51;1.60;;;0.30;;
53710;SDS011;39605;52.704;6.752;2023-07-29T10:12:17;1.00;;;0.30;;
53710;SDS011;39605;52.704;6.752;2023-07-29T10:14:44;2.10;;;0.40;;
53710;SDS011;39605;52.704;6.752;2023-07-29T10:17:11;1.38;;;0.30;;
53710;SDS011;39605;52.704;6.752;2023-07-29T10:19:37;1.10;;;0.30;;
53710;SDS011;39605;52.704;6.752;2023-07-29T10:22:04;1.35;;;0.47;;
53710;SDS011;39605;52.704;6.752;2023-07-29T10:24:32;1.42;;;0.47;;
53710;SDS011;39605;52.704;6.752;2023-07-29T10:26:59;2.67;;;0.52;;
53710;SDS011;39605;52.704;6.752;2023-07-29T10:29:28;2.35;;;0.60;;
53710;SDS011;39605;52.704;6.752;2023-07-29T10:31:55;1.65;;;0.80;;
53710;SDS011;39605;52.704;6.752;2023-07-29T10:34:23;1.00;;;0.82;;
53710;SDS011;39605;52.704;6.752;2023-07-29T10:36:50;0.90;;;0.90;;
53710;SDS011;39605;52.704;6.752;2023-07-29T10:39:17;2.63;;;1.40;;
53710;SDS011;39605;52.704;6.752;2023-07-29T10:41:56;1.38;;;0.90;;
53710;SDS011;39605;52.704;6.752;2023-07-29T10:47:12;2.75;;;1.30;;
53710;SDS011;39605;52.704;6.752;2023-07-29T10:49:41;1.42;;;1.33;;
53710;SDS011;39605;52.704;6.752;2023-07-29T10:52:07;2.08;;;1.40;;
53710;SDS011;39605;52.704;6.752;2023-07-29T10:57:12;1.98;;;1.20;;
53710;SDS011;39605;52.704;6.752;2023-07-29T10:59:39;0.90;;;0.77;;
53710;SDS011;39605;52.704;6.752;2023-07-29T11:02:12;2.05;;;1.27;;
53710;SDS011;39605;52.704;6.752;2023-07-29T11:04:49;1.52;;;1.08;;
53710;SDS011;39605;52.704;6.752;2023-07-29T11:15:00;1.65;;;1.50;;
53710;SDS011;39605;52.704;6.752;2023-07-29T11:17:29;1.38;;;1.27;;
53710;SDS011;39605;52.704;6.752;2023-07-29T11:19:56;1.50;;;1.23;;
53710;SDS011;39605;52.704;6.752;2023-07-29T11:22:25;2.28;;;1.58;;
53710;SDS011;39605;52.704;6.752;2023-07-29T11:24:51;1.48;;;1.38;;
53710;SDS011;39605;52.704;6.752;2023-07-29T11:27:17;3.22;;;1.30;;
53710;SDS011;39605;52.704;6.752;2023-07-29T11:29:43;1.90;;;1.60;;
53710;SDS011;39605;52.704;6.752;2023-07-29T11:32:10;1.67;;;1.10;;
53710;SDS011;39605;52.704;6.752;2023-07-29T11:34:36;1.65;;;1.33;;
53710;SDS011;39605;52.704;6.752;2023-07-29T11:37:02;1.92;;;1.10;;
53710;SDS011;39605;52.704;6.752;2023-07-29T11:39:28;2.08;;;1.10;;
53710;SDS011;39605;52.704;6.752;2023-07-29T11:41:54;2.95;;;1.20;;
53710;SDS011;39605;52.704;6.752;2023-07-29T11:44:20;1.92;;;1.77;;
53710;SDS011;39605;52.704;6.752;2023-07-29T11:46:46;1.88;;;1.35;;
53710;SDS011;39605;52.704;6.752;2023-07-29T11:49:13;3.13;;;1.20;;
53710;SDS011;39605;52.704;6.752;2023-07-29T11:51:41;2.38;;;1.20;;
53710;SDS011;39605;52.704;6.752;2023-07-29T11:54:16;1.73;;;1.48;;
53710;SDS011;39605;52.704;6.752;2023-07-29T11:56:46;2.28;;;1.10;;
53710;SDS011;39605;52.704;6.752;2023-07-29T11:59:12;2.83;;;1.60;;
53710;SDS011;39605;52.704;6.752;2023-07-29T12:01:38;2.85;;;1.10;;
53710;SDS011;39605;52.704;6.752;2023-07-29T12:04:05;2.78;;;0.98;;
53710;SDS011;39605;52.704;6.752;2023-07-29T12:06:32;2.30;;;0.80;;
53710;SDS011;39605;52.704;6.752;2023-07-29T12:08:58;1.45;;;0.75;;
53710;SDS011;39605;52.704;6.752;2023-07-29T12:11:24;2.67;;;1.10;;
53710;SDS011;39605;52.704;6.752;2023-07-29T12:13:50;3.22;;;0.70;;
53710;SDS011;39605;52.704;6.752;2023-07-29T12:16:18;8.77;;;0.90;;
53710;SDS011;39605;52.704;6.752;2023-07-29T12:18:45;1.30;;;0.50;;
53710;SDS011;39605;52.704;6.752;2023-07-29T12:21:13;3.75;;;1.02;;
53710;SDS011;39605;52.704;6.752;2023-07-29T12:23:39;1.08;;;0.40;;
53710;SDS011;39605;52.704;6.752;2023-07-29T12:26:05;1.50;;;0.40;;
53710;SDS011;39605;52.704;6.752;2023-07-29T12:28:31;1.25;;;0.50;;
53710;SDS011;39605;52.704;6.752;2023-07-29T12:30:58;0.80;;;0.50;;
53710;SDS011;39605;52.704;6.752;2023-07-29T12:35:57;0.85;;;0.40;;
53710;SDS011;39605;52.704;6.752;2023-07-29T12:38:26;2.25;;;0.52;;
53710;SDS011;39605;52.704;6.752;2023-07-29T12:40:53;1.38;;;0.50;;
53710;SDS011;39605;52.704;6.752;2023-07-29T12:43:19;1.60;;;0.50;;
53710;SDS011;39605;52.704;6.752;2023-07-29T12:45:45;2.00;;;0.50;;
53710;SDS011;39605;52.704;6.752;2023-07-29T12:48:11;1.25;;;0.60;;
53710;SDS011;39605;52.704;6.752;2023-07-29T12:50:38;1.00;;;0.40;;
53710;SDS011;39605;52.704;6.752;2023-07-29T12:53:04;0.90;;;0.40;;
53710;SDS011;39605;52.704;6.752;2023-07-29T12:55:31;0.90;;;0.30;;
53710;SDS011;39605;52.704;6.752;2023-07-29T12:57:57;3.65;;;0.40;;
53710;SDS011;39605;52.704;6.752;2023-07-29T13:00:26;1.10;;;0.50;;
53710;SDS011;39605;52.704;6.752;2023-07-29T13:02:52;1.00;;;0.50;;
53710;SDS011;39605;52.704;6.752;2023-07-29T13:05:18;3.58;;;0.77;;
53710;SDS011;39605;52.704;6.752;2023-07-29T13:07:44;2.15;;;0.45;;
53710;SDS011;39605;52.704;6.752;2023-07-29T13:10:10;2.53;;;0.90;;
53710;SDS011;39605;52.704;6.752;2023-07-29T13:12:36;2.63;;;0.95;;
53710;SDS011;39605;52.704;6.752;2023-07-29T13:15:03;0.90;;;0.80;;
53710;SDS011;39605;52.704;6.752;2023-07-29T13:17:29;3.15;;;1.00;;
53710;SDS011;39605;52.704;6.752;2023-07-29T13:19:55;1.83;;;0.90;;
53710;SDS011;39605;52.704;6.752;2023-07-29T13:22:21;2.60;;;0.70;;
53710;SDS011;39605;52.704;6.752;2023-07-29T13:24:47;2.38;;;0.65;;
53710;SDS011;39605;52.704;6.752;2023-07-29T13:27:13;2.00;;;1.10;;
53710;SDS011;39605;52.704;6.752;2023-07-29T13:29:39;1.92;;;1.00;;
53710;SDS011;39605;52.704;6.752;2023-07-29T13:32:06;3.63;;;0.82;;
53710;SDS011;39605;52.704;6.752;2023-07-29T13:34:33;2.50;;;0.68;;
53710;SDS011;39605;52.704;6.752;2023-07-29T13:36:59;3.08;;;0.45;;
53710;SDS011;39605;52.704;6.752;2023-07-29T13:39:25;1.27;;;0.38;;
53710;SDS011;39605;52.704;6.752;2023-07-29T13:41:52;0.98;;;0.20;;
53710;SDS011;39605;52.704;6.752;2023-07-29T13:44:18;1.55;;;0.38;;
53710;SDS011;39605;52.704;6.752;2023-07-29T13:46:44;2.08;;;0.30;;
53710;SDS011;39605;52.704;6.752;2023-07-29T13:49:11;0.82;;;0.32;;
53710;SDS011;39605;52.704;6.752;2023-07-29T13:51:37;0.80;;;0.30;;
53710;SDS011;39605;52.704;6.752;2023-07-29T13:54:03;0.95;;;0.50;;
53710;SDS011;39605;52.704;6.752;2023-07-29T13:56:29;3.53;;;0.30;;
53710;SDS011;39605;52.704;6.752;2023-07-29T13:58:55;1.60;;;0.38;;
53710;SDS011;39605;52.704;6.752;2023-07-29T14:01:21;0.65;;;0.30;;
53710;SDS011;39605;52.704;6.752;2023-07-29T14:03:47;0.40;;;0.20;;
53710;SDS011;39605;52.704;6.752;2023-07-29T14:06:13;1.40;;;0.60;;
53710;SDS011;39605;52.704;6.752;2023-07-29T14:08:39;0.82;;;0.40;;
53710;SDS011;39605;52.704;6.752;2023-07-29T14:11:07;1.38;;;0.30;;
53710;SDS011;39605;52.704;6.752;2023-07-29T14:13:33;0.55;;;0.30;;
53710;SDS011;39605;52.704;6.752;2023-07-29T14:16:03;1.25;;;0.30;;
53710;SDS011;39605;52.704;6.752;2023-07-29T14:18:29;0.52;;;0.30;;
53710;SDS011;39605;52.704;6.752;2023-07-29T14:20:55;0.30;;;0.20;;
53710;SDS011;39605;52.704;6.752;2023-07-29T14:23:21;0.28;;;0.20;;
53710;SDS011;39605;52.704;6.752;2023-07-29T14:25:47;0.57;;;0.20;;
53710;SDS011;39605;52.704;6.752;2023-07-29T14:28:13;0.73;;;0.20;;
53710;SDS011;39605;52.704;6.752;2023-07-29T14:30:40;1.58;;;0.30;;
53710;SDS011;39605;52.704;6.752;2023-07-29T14:33:06;0.75;;;0.30;;
53710;SDS011;39605;52.704;6.752;2023-07-29T14:35:32;0.50;;;0.20;;
53710;SDS011;39605;52.704;6.752;2023-07-29T14:37:59;0.60;;;0.20;;
53710;SDS011;39605;52.704;6.752;2023-07-29T14:40:25;0.63;;;0.22;;
53710;SDS011;39605;52.704;6.752;2023-07-29T14:42:52;10.13;;;0.30;;
53710;SDS011;39605;52.704;6.752;2023-07-29T14:45:18;4.47;;;2.50;;
53710;SDS011;39605;52.704;6.752;2023-07-29T14:47:44;3.70;;;0.40;;
53710;SDS011;39605;52.704;6.752;2023-07-29T14:50:10;0.52;;;0.30;;
53710;SDS011;39605;52.704;6.752;2023-07-29T14:52:36;1.25;;;0.60;;
53710;SDS011;39605;52.704;6.752;2023-07-29T14:55:03;4.88;;;1.52;;
53710;SDS011;39605;52.704;6.752;2023-07-29T14:57:29;7.05;;;1.52;;
53710;SDS011;39605;52.704;6.752;2023-07-29T14:59:55;2.00;;;0.95;;
53710;SDS011;39605;52.704;6.752;2023-07-29T15:02:21;6.47;;;1.52;;
53710;SDS011;39605;52.704;6.752;2023-07-29T15:04:48;5.78;;;1.52;;
53710;SDS011;39605;52.704;6.752;2023-07-29T15:07:14;2.20;;;2.00;;
53710;SDS011;39605;52.704;6.752;2023-07-29T15:09:40;4.30;;;2.35;;